createdAt,value
2022-10-24T00:01:27.113Z,99034.40
2022-10-24T00:03:54.846Z,99024.25
2022-10-24T00:06:22.529Z,99022.09
2022-10-24T00:08:52.089Z,99022.45
2022-10-24T00:11:23.952Z,99014.89
2022-10-24T00:13:52.808Z,99011.94
2022-10-24T00:16:20.444Z,99010.12
2022-10-24T00:18:48.487Z,99002.13
2022-10-24T00:21:16.117Z,99001.84
2022-10-24T00:23:43.642Z,99000.67
2022-10-24T00:26:12.007Z,99001.60
2022-10-24T00:28:40.342Z,99006.68
2022-10-24T00:31:13.984Z,99020.69
2022-10-24T00:33:43.176Z,99027.05
2022-10-24T00:36:16.525Z,99019.95
2022-10-24T00:38:44.268Z,99019.46
2022-10-24T00:41:20.461Z,99017.92
2022-10-24T00:43:48.332Z,99010.90
2022-10-24T00:46:17.424Z,99010.85
2022-10-24T00:48:53.915Z,99011.67
2022-10-24T00:51:24.798Z,99006.20
2022-10-24T00:54:05.219Z,98998.73
2022-10-24T00:56:37.487Z,99002.90
2022-10-24T00:59:06.122Z,99002.25
2022-10-24T01:01:34.439Z,99003.43
2022-10-24T01:04:02.776Z,98996.70
2022-10-24T01:06:39.657Z,98989.83
2022-10-24T01:09:10.047Z,98985.66
2022-10-24T01:11:40.556Z,98983.42
2022-10-24T01:14:31.455Z,98984.73
2022-10-24T01:17:15.248Z,98982.20
2022-10-24T01:19:52.197Z,98979.96
2022-10-24T01:22:24.638Z,98976.95
2022-10-24T01:24:59.663Z,98972.40
2022-10-24T01:27:32.668Z,98973.79
2022-10-24T01:30:08.327Z,98972.93
2022-10-24T01:32:45.072Z,98972.73
2022-10-24T01:35:26.532Z,98968.83
2022-10-24T01:38:00.838Z,98961.89
2022-10-24T01:40:33.667Z,98962.46
2022-10-24T01:43:07.683Z,98961.51
2022-10-24T01:45:37.168Z,98955.39
2022-10-24T01:48:07.407Z,98954.16
2022-10-24T01:50:36.712Z,98956.13
2022-10-24T01:53:05.180Z,98949.95
2022-10-24T01:55:33.237Z,98939.10
2022-10-24T01:58:01.427Z,98938.61
2022-10-24T02:00:29.164Z,98936.30
2022-10-24T02:03:26.184Z,98934.59
2022-10-24T02:05:59.426Z,98928.73
2022-10-24T02:08:33.676Z,98924.45
2022-10-24T02:11:02.908Z,98924.39
2022-10-24T02:13:42.240Z,98919.46
2022-10-24T02:16:09.805Z,98915.09
2022-10-24T02:18:38.238Z,98914.16
2022-10-24T02:21:29.385Z,98912.64
2022-10-24T02:24:12.355Z,98905.05
2022-10-24T02:26:47.748Z,98901.83
2022-10-24T02:29:41.727Z,98898.40
2022-10-24T02:32:14.304Z,98891.15
2022-10-24T02:34:42.317Z,98889.91
2022-10-24T02:37:11.772Z,98884.46
2022-10-24T02:39:40.907Z,98876.05
2022-10-24T02:42:08.999Z,98878.03
2022-10-24T02:44:36.831Z,98874.42
2022-10-24T02:47:05.976Z,98873.83
2022-10-24T02:49:33.965Z,98877.62
2022-10-24T02:52:01.773Z,98878.05
2022-10-24T02:54:29.290Z,98874.12
2022-10-24T02:57:00.289Z,98870.96
2022-10-24T02:59:28.346Z,98871.73
2022-10-24T03:01:56.474Z,98871.29
2022-10-24T03:04:24.222Z,98870.70
2022-10-24T03:06:53.267Z,98868.73
2022-10-24T03:09:20.757Z,98871.70
2022-10-24T03:11:48.373Z,98867.09
2022-10-24T03:14:15.997Z,98855.66
2022-10-24T03:16:43.586Z,98852.61
2022-10-24T03:19:11.105Z,98850.04
2022-10-24T03:21:40.101Z,98842.11
2022-10-24T03:26:40.508Z,98846.05
2022-10-24T03:29:08.086Z,98849.95
2022-10-24T03:31:36.525Z,98841.83
2022-10-24T03:34:04.380Z,98836.08
2022-10-24T03:36:32.063Z,98822.75
2022-10-24T03:38:59.621Z,98817.40
2022-10-24T03:41:27.291Z,98817.48
2022-10-24T03:43:54.912Z,98811.02
2022-10-24T03:46:22.715Z,98799.44
2022-10-24T03:48:50.301Z,98789.90
2022-10-24T03:51:17.867Z,98780.96
2022-10-24T03:53:45.466Z,98774.31
2022-10-24T03:56:13.101Z,98777.55
2022-10-24T03:58:40.617Z,98773.79
2022-10-24T04:01:10.163Z,98768.45
2022-10-24T04:03:37.728Z,98753.55
2022-10-24T04:06:05.365Z,98757.03
2022-10-24T04:08:32.996Z,98756.41
2022-10-24T04:11:00.579Z,98765.88
2022-10-24T04:13:28.992Z,98772.48
2022-10-24T04:15:56.496Z,98786.02
2022-10-24T04:18:24.323Z,98784.17
2022-10-24T04:20:51.873Z,98783.42
2022-10-24T04:23:19.350Z,98782.07
2022-10-24T04:25:47.091Z,98777.70
2022-10-24T04:28:14.592Z,98775.15
2022-10-24T04:33:11.278Z,98766.80
2022-10-24T04:35:38.807Z,98764.52
2022-10-24T04:38:06.352Z,98778.30
2022-10-24T04:40:34.360Z,98776.85
2022-10-24T04:43:01.867Z,98780.09
2022-10-24T04:45:29.404Z,98790.48
2022-10-24T04:47:56.904Z,98794.59
2022-10-24T04:50:24.696Z,98797.59
2022-10-24T04:52:52.228Z,98795.79
2022-10-24T04:55:19.748Z,98789.69
2022-10-24T04:57:47.406Z,98785.52
2022-10-24T05:00:15.753Z,98787.97
2022-10-24T05:02:43.303Z,98794.76
2022-10-24T05:05:10.912Z,98800.41
2022-10-24T05:07:38.513Z,98798.92
2022-10-24T05:10:06.446Z,98797.16
2022-10-24T05:12:34.092Z,98794.83
2022-10-24T05:15:01.581Z,98796.00
2022-10-24T05:17:29.161Z,98787.68
2022-10-24T05:19:56.743Z,98781.98
2022-10-24T05:22:24.280Z,98784.04
2022-10-24T05:24:52.148Z,98791.82
2022-10-24T05:27:24.703Z,98784.92
2022-10-24T05:29:52.754Z,98786.07
2022-10-24T05:32:22.336Z,98776.48
2022-10-24T05:34:50.723Z,98773.20
2022-10-24T05:37:18.611Z,98768.45
2022-10-24T05:39:46.185Z,98770.96
2022-10-24T05:42:13.783Z,98776.71
2022-10-24T05:44:41.309Z,98782.10
2022-10-24T05:47:08.879Z,98786.95
2022-10-24T05:49:36.477Z,98784.91
2022-10-24T05:52:04.689Z,98785.38
2022-10-24T05:54:42.498Z,98789.42
2022-10-24T05:57:19.701Z,98792.41
2022-10-24T05:59:47.181Z,98796.08
2022-10-24T06:02:19.571Z,98796.23
2022-10-24T06:04:48.239Z,98796.98
2022-10-24T06:07:16.405Z,98797.10
2022-10-24T06:09:43.939Z,98801.35
2022-10-24T06:12:12.311Z,98803.56
2022-10-24T06:14:40.063Z,98799.70
2022-10-24T06:17:09.247Z,98799.52
2022-10-24T06:19:37.062Z,98808.58
2022-10-24T06:22:05.869Z,98814.29
2022-10-24T06:24:37.900Z,98815.45
2022-10-24T06:27:07.192Z,98817.77
2022-10-24T06:29:36.445Z,98824.70
2022-10-24T06:32:04.088Z,98829.05
2022-10-24T06:34:31.737Z,98820.95
2022-10-24T06:36:59.295Z,98809.55
2022-10-24T06:39:27.116Z,98809.92
2022-10-24T06:41:54.603Z,98817.65
2022-10-24T06:44:22.153Z,98815.84
2022-10-24T06:46:49.715Z,98816.19
2022-10-24T06:49:17.483Z,98814.94
2022-10-24T06:51:45.011Z,98814.90
2022-10-24T06:54:12.962Z,98819.38
2022-10-24T06:56:40.463Z,98821.63
2022-10-24T06:59:13.736Z,98823.98
2022-10-24T07:01:41.467Z,98824.64
2022-10-24T07:04:09.081Z,98825.52
2022-10-24T07:06:37.231Z,98834.52
2022-10-24T07:09:05.713Z,98835.10
2022-10-24T07:11:34.464Z,98835.59
2022-10-24T07:14:04.479Z,98841.64
2022-10-24T07:16:34.663Z,98844.13
2022-10-24T07:19:02.735Z,98843.21
2022-10-24T07:21:32.558Z,98841.73
2022-10-24T07:24:00.880Z,98845.23
2022-10-24T07:26:30.109Z,98848.01
2022-10-24T07:31:35.313Z,98853.35
2022-10-24T07:34:05.989Z,98851.92
2022-10-24T07:36:33.680Z,98849.36
2022-10-24T07:39:01.978Z,98850.41
2022-10-24T07:41:31.128Z,98847.99
2022-10-24T07:43:59.687Z,98852.59
2022-10-24T07:46:27.378Z,98855.17
2022-10-24T07:48:55.381Z,98859.52
2022-10-24T07:51:23.460Z,98858.85
2022-10-24T07:53:51.002Z,98853.98
2022-10-24T07:56:18.731Z,98846.31
2022-10-24T07:58:47.008Z,98846.60
2022-10-24T08:01:20.137Z,98850.82
2022-10-24T08:03:47.792Z,98851.52
2022-10-24T08:06:18.485Z,98843.81
2022-10-24T08:08:46.060Z,98837.63
2022-10-24T08:11:19.349Z,98833.29
2022-10-24T08:13:47.215Z,98828.60
2022-10-24T08:16:16.505Z,98826.76
2022-10-24T08:18:44.225Z,98825.59
2022-10-24T08:21:13.900Z,98825.92
2022-10-24T08:23:44.107Z,98821.47
2022-10-24T08:26:13.868Z,98818.39
2022-10-24T08:28:42.328Z,98814.59
2022-10-24T08:31:12.800Z,98814.38
2022-10-24T08:33:41.015Z,98817.52
2022-10-24T08:36:18.621Z,98816.06
2022-10-24T08:38:46.346Z,98815.37
2022-10-24T08:41:24.575Z,98821.10
2022-10-24T08:43:53.702Z,98827.68
2022-10-24T08:46:39.366Z,98829.54
2022-10-24T08:49:50.708Z,98823.98
2022-10-24T08:52:31.851Z,98821.30
2022-10-24T08:55:04.879Z,98820.20
2022-10-24T08:57:35.267Z,98823.01
2022-10-24T09:00:11.446Z,98825.36
2022-10-24T09:02:39.829Z,98829.35
2022-10-24T09:05:20.956Z,98833.69
2022-10-24T09:07:55.568Z,98838.13
2022-10-24T09:10:30.789Z,98837.61
2022-10-24T09:12:58.344Z,98839.45
2022-10-24T09:15:29.651Z,98847.92
2022-10-24T09:17:59.512Z,98839.98
2022-10-24T09:20:29.611Z,98845.66
2022-10-24T09:22:58.979Z,98844.66
2022-10-24T09:25:30.306Z,98851.58
2022-10-24T09:27:59.147Z,98854.09
2022-10-24T09:30:31.366Z,98853.67
2022-10-24T09:33:18.289Z,98847.05
2022-10-24T09:35:52.936Z,98847.96
2022-10-24T09:38:25.404Z,98841.26
2022-10-24T09:40:55.751Z,98836.58
2022-10-24T09:43:46.843Z,98832.20
2022-10-24T09:46:39.680Z,98832.01
2022-10-24T09:49:19.595Z,98829.16
2022-10-24T09:51:50.528Z,98830.98
2022-10-24T09:54:17.994Z,98827.85
2022-10-24T09:56:54.450Z,98828.57
2022-10-24T09:59:36.149Z,98830.71
2022-10-24T10:02:34.463Z,98824.56
2022-10-24T10:05:02.188Z,98821.02
2022-10-24T10:07:35.785Z,98825.71
2022-10-24T10:10:25.771Z,98826.14
2022-10-24T10:12:58.327Z,98830.63
2022-10-24T10:15:30.600Z,98833.77
2022-10-24T10:18:03.985Z,98835.23
2022-10-24T10:20:40.620Z,98837.92
2022-10-24T10:23:20.647Z,98838.52
2022-10-24T10:25:48.112Z,98844.77
2022-10-24T10:28:20.894Z,98847.46
2022-10-24T10:30:56.317Z,98853.70
2022-10-24T10:36:20.181Z,98859.52
2022-10-24T10:39:13.517Z,98855.77
2022-10-24T10:41:46.823Z,98858.77
2022-10-24T10:44:40.506Z,98863.15
2022-10-24T10:47:27.680Z,98862.05
2022-10-24T10:49:58.155Z,98853.42
2022-10-24T10:52:31.761Z,98841.42
2022-10-24T10:55:21.153Z,98844.01
2022-10-24T10:58:13.374Z,98848.52
2022-10-24T11:00:58.710Z,98845.88
2022-10-24T11:03:34.373Z,98842.88
2022-10-24T11:06:22.877Z,98849.33
2022-10-24T11:09:30.207Z,98842.33
2022-10-24T11:12:06.410Z,98848.24
2022-10-24T11:14:40.453Z,98846.40
2022-10-24T11:17:15.785Z,98843.70
2022-10-24T11:19:55.058Z,98844.35
2022-10-24T11:22:29.864Z,98844.77
2022-10-24T11:25:28.881Z,98839.67
2022-10-24T11:28:12.540Z,98840.55
2022-10-24T11:31:00.284Z,98834.34
2022-10-24T11:33:32.421Z,98831.30
2022-10-24T11:36:19.815Z,98829.05
2022-10-24T11:39:03.673Z,98826.39
2022-10-24T11:41:58.808Z,98824.63
2022-10-24T11:44:35.021Z,98821.61
2022-10-24T11:47:24.051Z,98815.02
2022-10-24T11:49:59.949Z,98815.85
2022-10-24T11:52:31.095Z,98816.10
2022-10-24T11:55:04.308Z,98814.92
2022-10-24T11:57:32.172Z,98819.36
2022-10-24T11:59:59.830Z,98815.05
2022-10-24T12:02:49.683Z,98807.23
2022-10-24T12:05:42.312Z,98795.93
2022-10-24T12:08:42.315Z,98797.61
2022-10-24T12:11:31.728Z,98799.07
2022-10-24T12:14:22.901Z,98794.58
2022-10-24T12:17:16.901Z,98788.36
2022-10-24T12:19:45.313Z,98790.85
2022-10-24T12:22:17.715Z,98794.74
2022-10-24T12:24:45.519Z,98797.28
2022-10-24T12:27:28.255Z,98802.36
2022-10-24T12:30:18.316Z,98799.27
2022-10-24T12:32:49.594Z,98797.17
2022-10-24T12:35:35.619Z,98790.72
2022-10-24T12:38:15.237Z,98787.95
2022-10-24T12:40:51.531Z,98783.26
2022-10-24T12:43:43.361Z,98779.68
2022-10-24T12:46:22.699Z,98772.76
2022-10-24T12:48:56.580Z,98773.55
2022-10-24T12:51:29.056Z,98776.20
2022-10-24T12:54:11.897Z,98773.02
2022-10-24T12:56:52.559Z,98773.06
2022-10-24T12:59:22.408Z,98772.96
2022-10-24T13:01:52.116Z,98774.10
2022-10-24T13:04:50.171Z,98772.05
2022-10-24T13:07:30.273Z,98772.96
2022-10-24T13:10:12.947Z,98776.48
2022-10-24T13:12:58.272Z,98780.20
2022-10-24T13:15:41.791Z,98780.95
2022-10-24T13:18:21.539Z,98778.35
2022-10-24T13:20:52.436Z,98777.92
2022-10-24T13:23:25.038Z,98773.81
2022-10-24T13:25:59.443Z,98774.30
2022-10-24T13:28:30.318Z,98777.00
2022-10-24T13:30:57.856Z,98777.76
2022-10-24T13:33:32.186Z,98779.76
2022-10-24T13:36:09.081Z,98781.60
2022-10-24T13:38:41.755Z,98779.42
2022-10-24T13:41:11.632Z,98774.94
2022-10-24T13:43:44.817Z,98775.77
2022-10-24T13:46:23.818Z,98779.34
2022-10-24T13:48:52.552Z,98779.52
2022-10-24T13:51:24.093Z,98778.23
2022-10-24T13:53:59.425Z,98777.40
2022-10-24T13:56:27.960Z,98776.96
2022-10-24T13:58:55.592Z,98782.23
2022-10-24T14:01:25.874Z,98788.70
2022-10-24T14:03:54.816Z,98783.58
2022-10-24T14:06:27.914Z,98778.66
2022-10-24T14:09:06.476Z,98785.95
2022-10-24T14:11:39.946Z,98792.41
2022-10-24T14:14:34.453Z,98795.70
2022-10-24T14:17:22.121Z,98794.90
2022-10-24T14:20:11.159Z,98792.68
2022-10-24T14:22:40.367Z,98786.15
2022-10-24T14:25:36.514Z,98785.45
2022-10-24T14:28:20.228Z,98790.97
2022-10-24T14:30:59.003Z,98794.75
2022-10-24T14:33:42.910Z,98796.68
2022-10-24T14:36:10.674Z,98793.30
2022-10-24T14:38:38.765Z,98791.98
2022-10-24T14:41:10.285Z,98790.68
2022-10-24T14:43:42.173Z,98790.09
2022-10-24T14:46:13.321Z,98797.38
2022-10-24T14:48:46.742Z,98798.14
2022-10-24T14:51:31.130Z,98802.02
2022-10-24T14:54:01.773Z,98805.52
2022-10-24T14:56:33.151Z,98811.20
2022-10-24T14:59:03.724Z,98809.30
2022-10-24T15:01:31.748Z,98811.70
2022-10-24T15:04:04.187Z,98809.58
2022-10-24T15:06:40.457Z,98809.13
2022-10-24T15:09:10.753Z,98803.01
2022-10-24T15:11:43.856Z,98801.10
2022-10-24T15:14:37.411Z,98802.22
2022-10-24T15:17:17.260Z,98801.27
2022-10-24T15:19:45.331Z,98795.69
2022-10-24T15:22:32.171Z,98792.49
2022-10-24T15:25:06.542Z,98786.27
2022-10-24T15:27:41.905Z,98786.48
2022-10-24T15:30:21.074Z,98790.13
2022-10-24T15:32:50.569Z,98795.98
2022-10-24T15:35:18.604Z,98796.54
2022-10-24T15:37:54.702Z,98801.58
2022-10-24T15:40:28.471Z,98801.60
2022-10-24T15:42:56.212Z,98805.46
2022-10-24T15:45:24.107Z,98800.81
2022-10-24T15:47:53.062Z,98790.08
2022-10-24T15:52:57.144Z,98787.29
2022-10-24T15:55:26.809Z,98793.56
2022-10-24T15:57:55.057Z,98789.85
2022-10-24T16:00:23.444Z,98788.61
2022-10-24T16:02:52.915Z,98785.38
2022-10-24T16:05:22.754Z,98790.63
2022-10-24T16:07:53.824Z,98794.45
2022-10-24T16:10:22.550Z,98792.80
2022-10-24T16:12:51.245Z,98795.45
2022-10-24T16:15:22.231Z,98801.48
2022-10-24T16:17:49.843Z,98800.14
2022-10-24T16:20:17.620Z,98796.97
2022-10-24T16:22:45.644Z,98797.09
2022-10-24T16:25:34.107Z,98801.55
2022-10-24T16:28:02.728Z,98799.55
2022-10-24T16:30:32.073Z,98798.30
2022-10-24T16:32:59.913Z,98801.73
2022-10-24T16:35:33.849Z,98802.91
2022-10-24T16:38:02.346Z,98803.27
2022-10-24T16:40:30.320Z,98805.08
2022-10-24T16:42:59.285Z,98808.35
2022-10-24T16:45:26.981Z,98811.50
2022-10-24T16:47:54.499Z,98809.60
2022-10-24T16:50:28.729Z,98813.10
2022-10-24T16:52:59.908Z,98812.13
2022-10-24T16:55:28.860Z,98809.29
2022-10-24T16:57:56.946Z,98804.01
2022-10-24T17:00:25.724Z,98805.80
2022-10-24T17:02:54.667Z,98806.31
2022-10-24T17:05:24.589Z,98802.00
2022-10-24T17:07:52.889Z,98802.48
2022-10-24T17:10:23.801Z,98798.04
2022-10-24T17:12:53.014Z,98801.33
2022-10-24T17:15:22.274Z,98799.98
2022-10-24T17:17:50.538Z,98805.70
2022-10-24T17:20:18.624Z,98806.79
2022-10-24T17:22:46.626Z,98807.16
2022-10-24T17:25:23.368Z,98808.51
2022-10-24T17:27:51.915Z,98804.39
2022-10-24T17:30:23.293Z,98807.98
2022-10-24T17:32:51.399Z,98811.01
2022-10-24T17:35:20.886Z,98813.10
2022-10-24T17:38:12.321Z,98814.87
2022-10-24T17:40:42.963Z,98814.70
2022-10-24T17:43:27.722Z,98814.24
2022-10-24T17:45:56.877Z,98815.98
2022-10-24T17:48:24.607Z,98816.41
2022-10-24T17:50:55.625Z,98814.35
2022-10-24T17:53:23.323Z,98811.34
2022-10-24T17:55:50.955Z,98801.05
2022-10-24T17:58:18.470Z,98800.46
2022-10-24T18:00:46.474Z,98798.14
2022-10-24T18:03:14.999Z,98798.15
2022-10-24T18:05:42.551Z,98799.83
2022-10-24T18:08:11.590Z,98799.12
2022-10-24T18:10:40.124Z,98797.98
2022-10-24T18:13:09.325Z,98799.31
2022-10-24T18:15:37.854Z,98802.19
2022-10-24T18:18:05.637Z,98802.45
2022-10-24T18:20:34.662Z,98809.05
2022-10-24T18:23:02.851Z,98806.92
2022-10-24T18:25:30.403Z,98808.89
2022-10-24T18:27:58.193Z,98808.56
2022-10-24T18:30:27.314Z,98809.07
2022-10-24T18:32:55.022Z,98808.35
2022-10-24T18:35:22.699Z,98808.17
2022-10-24T18:40:18.821Z,98813.36
2022-10-24T18:43:01.503Z,98810.80
2022-10-24T18:45:29.924Z,98810.73
2022-10-24T18:47:58.079Z,98813.97
2022-10-24T18:50:26.288Z,98808.90
2022-10-24T18:53:09.793Z,98806.09
2022-10-24T18:55:37.699Z,98802.30
2022-10-24T18:58:10.980Z,98796.17
2022-10-24T19:00:39.591Z,98799.88
2022-10-24T19:03:16.657Z,98798.37
2022-10-24T19:05:53.820Z,98800.20
2022-10-24T19:08:25.299Z,98797.21
2022-10-24T19:10:56.305Z,98794.85
2022-10-24T19:13:25.764Z,98793.30
2022-10-24T19:15:58.515Z,98791.92
2022-10-24T19:18:28.255Z,98788.38
2022-10-24T19:20:55.863Z,98783.95
2022-10-24T19:23:24.659Z,98785.88
2022-10-24T19:25:52.456Z,98780.83
2022-10-24T19:28:20.502Z,98783.21
2022-10-24T19:30:48.481Z,98783.94
2022-10-24T19:33:16.661Z,98781.98
2022-10-24T19:35:47.224Z,98784.95
2022-10-24T19:38:16.484Z,98788.73
2022-10-24T19:40:45.745Z,98790.55
2022-10-24T19:43:13.857Z,98792.38
2022-10-24T19:45:49.983Z,98789.80
2022-10-24T19:52:42.488Z,98794.64
2022-10-24T19:55:09.989Z,98794.21
2022-10-24T19:57:37.589Z,98793.20
2022-10-24T20:00:05.617Z,98795.09
2022-10-24T20:02:39.395Z,98795.42
2022-10-24T20:05:07.665Z,98795.36
2022-10-24T20:07:35.169Z,98794.34
2022-10-24T20:10:03.094Z,98789.02
2022-10-24T20:12:30.585Z,98789.08
2022-10-24T20:14:58.140Z,98788.61
2022-10-24T20:17:25.632Z,98782.84
2022-10-24T20:19:53.159Z,98781.05
2022-10-24T20:22:20.683Z,98782.92
2022-10-24T20:24:48.282Z,98787.61
2022-10-24T20:27:17.174Z,98790.05
2022-10-24T20:29:45.657Z,98791.61
2022-10-24T20:32:13.225Z,98795.02
2022-10-24T20:34:41.256Z,98795.42
2022-10-24T20:37:09.422Z,98796.98
2022-10-24T20:39:37.910Z,98798.55
2022-10-24T20:42:05.903Z,98799.61
2022-10-24T20:44:33.486Z,98801.45
2022-10-24T20:47:00.987Z,98802.15
2022-10-24T20:49:28.489Z,98801.55
2022-10-24T20:51:56.314Z,98804.52
2022-10-24T20:54:23.912Z,98806.88
2022-10-24T20:56:51.473Z,98816.52
2022-10-24T20:59:19.077Z,98819.84
2022-10-24T21:01:46.755Z,98825.42
2022-10-24T21:04:17.039Z,98832.04
2022-10-24T21:06:47.786Z,98833.51
2022-10-24T21:09:15.393Z,98838.54
2022-10-24T21:11:43.480Z,98845.67
2022-10-24T21:14:13.423Z,98850.55
2022-10-24T21:16:40.930Z,98852.77
2022-10-24T21:19:08.484Z,98851.72
2022-10-24T21:21:36.027Z,98851.95
2022-10-24T21:24:05.769Z,98853.95
2022-10-24T21:26:39.603Z,98853.65
2022-10-24T21:29:20.626Z,98850.98
2022-10-24T21:31:55.702Z,98849.15
2022-10-24T21:34:23.456Z,98846.59
2022-10-24T21:36:50.960Z,98845.70
2022-10-24T21:39:18.586Z,98850.30
2022-10-24T21:41:46.461Z,98849.80
2022-10-24T21:44:14.458Z,98845.09
2022-10-24T21:46:42.278Z,98847.66
2022-10-24T21:49:11.072Z,98849.15
2022-10-24T21:51:39.388Z,98846.56
2022-10-24T21:54:14.533Z,98846.23
2022-10-24T21:56:42.082Z,98847.93
2022-10-24T21:59:13.478Z,98852.63
2022-10-24T22:01:42.179Z,98851.45
2022-10-24T22:04:11.336Z,98850.32
2022-10-24T22:06:39.541Z,98850.96
2022-10-24T22:09:08.600Z,98849.48
2022-10-24T22:11:37.208Z,98846.15
2022-10-24T22:14:05.973Z,98847.45
2022-10-24T22:16:34.097Z,98850.16
2022-10-24T22:19:03.442Z,98852.05
2022-10-24T22:21:37.217Z,98856.63
2022-10-24T22:24:10.290Z,98858.95
2022-10-24T22:26:38.890Z,98856.21
2022-10-24T22:29:07.615Z,98856.18
2022-10-24T22:31:36.020Z,98865.69
2022-10-24T22:34:04.078Z,98870.52
2022-10-24T22:37:05.449Z,98871.05
2022-10-24T22:39:33.320Z,98866.09
2022-10-24T22:42:01.088Z,98866.44
2022-10-24T22:44:29.185Z,98869.23
2022-10-24T22:46:59.068Z,98869.40
2022-10-24T22:49:51.752Z,98864.09
2022-10-24T22:52:19.632Z,98855.00
2022-10-24T22:54:47.405Z,98848.85
2022-10-24T22:57:15.752Z,98843.14
2022-10-24T22:59:43.636Z,98840.19
2022-10-24T23:02:34.101Z,98833.02
2022-10-24T23:05:19.411Z,98834.42
2022-10-24T23:07:57.024Z,98824.39
2022-10-24T23:10:25.976Z,98829.80
2022-10-24T23:12:53.861Z,98827.71
2022-10-24T23:15:22.299Z,98828.52
2022-10-24T23:17:50.804Z,98829.92
2022-10-24T23:20:31.155Z,98831.27
2022-10-24T23:23:16.064Z,98825.35
2022-10-24T23:25:50.198Z,98827.96
2022-10-24T23:28:33.819Z,98826.73
2022-10-24T23:33:34.367Z,98821.83
2022-10-24T23:36:02.095Z,98827.98
2022-10-24T23:38:29.874Z,98836.10
2022-10-24T23:40:57.569Z,98834.84
2022-10-24T23:43:25.379Z,98833.73
2022-10-24T23:45:59.670Z,98841.16
2022-10-24T23:48:34.427Z,98836.73
2022-10-24T23:51:10.543Z,98848.02
2022-10-24T23:53:51.358Z,98862.15
2022-10-24T23:56:29.260Z,98858.13
2022-10-24T23:58:56.828Z,98862.41
